sensor_id;sensor_type;location;lat;lon;timestamp;temperature;humidity
45008;DHT22;30743;52.008;5.644;2023-11-18T00:01:49;11.40;99.90
45008;DHT22;30743;52.008;5.644;2023-11-18T00:04:14;11.40;99.90
45008;DHT22;30743;52.008;5.644;2023-11-18T00:06:43;11.30;99.90
45008;DHT22;30743;52.008;5.644;2023-11-18T00:09:13;11.40;99.90
45008;DHT22;30743;52.008;5.644;2023-11-18T00:11:39;11.30;99.90
45008;DHT22;30743;52.008;5.644;2023-11-18T00:14:04;11.30;99.90
45008;DHT22;30743;52.008;5.644;2023-11-18T00:16:30;11.40;99.90
45008;DHT22;30743;52.008;5.644;2023-11-18T00:18:56;11.30;99.90
45008;DHT22;30743;52.008;5.644;2023-11-18T00:21:24;11.40;99.90
45008;DHT22;30743;52.008;5.644;2023-11-18T00:23:49;11.40;99.90
45008;DHT22;30743;52.008;5.644;2023-11-18T00:26:15;11.50;99.90
45008;DHT22;30743;52.008;5.644;2023-11-18T00:28:40;11.30;99.90
45008;DHT22;30743;52.008;5.644;2023-11-18T00:31:06;11.40;99.90
45008;DHT22;30743;52.008;5.644;2023-11-18T00:33:32;11.50;99.90
45008;DHT22;30743;52.008;5.644;2023-11-18T00:35:58;11.60;99.90
45008;DHT22;30743;52.008;5.644;2023-11-18T00:38:25;11.70;99.90
45008;DHT22;30743;52.008;5.644;2023-11-18T00:40:51;11.90;99.90
45008;DHT22;30743;52.008;5.644;2023-11-18T00:43:17;11.80;99.90
45008;DHT22;30743;52.008;5.644;2023-11-18T00:45:42;11.80;99.90
45008;DHT22;30743;52.008;5.644;2023-11-18T00:48:09;11.60;99.90
45008;DHT22;30743;52.008;5.644;2023-11-18T00:50:34;11.50;99.90
45008;DHT22;30743;52.008;5.644;2023-11-18T00:53:00;11.50;99.90
45008;DHT22;30743;52.008;5.644;2023-11-18T00:55:26;11.40;99.90
45008;DHT22;30743;52.008;5.644;2023-11-18T00:57:52;11.20;99.90
45008;DHT22;30743;52.008;5.644;2023-11-18T01:00:17;11.30;99.90
45008;DHT22;30743;52.008;5.644;2023-11-18T01:02:47;11.60;99.90
45008;DHT22;30743;52.008;5.644;2023-11-18T01:05:15;11.30;99.90
45008;DHT22;30743;52.008;5.644;2023-11-18T01:07:41;11.20;99.90
45008;DHT22;30743;52.008;5.644;2023-11-18T01:10:07;11.10;99.90
45008;DHT22;30743;52.008;5.644;2023-11-18T01:12:34;11.20;99.90
45008;DHT22;30743;52.008;5.644;2023-11-18T01:14:59;11.20;99.90
45008;DHT22;30743;52.008;5.644;2023-11-18T01:17:25;11.20;99.90
45008;DHT22;30743;52.008;5.644;2023-11-18T01:19:51;11.30;99.90
45008;DHT22;30743;52.008;5.644;2023-11-18T01:22:16;11.30;99.90
45008;DHT22;30743;52.008;5.644;2023-11-18T01:24:44;11.30;99.90
45008;DHT22;30743;52.008;5.644;2023-11-18T01:27:10;11.30;99.90
45008;DHT22;30743;52.008;5.644;2023-11-18T01:29:37;11.40;99.90
45008;DHT22;30743;52.008;5.644;2023-11-18T01:32:02;11.30;99.90
45008;DHT22;30743;52.008;5.644;2023-11-18T01:34:37;11.30;99.90
45008;DHT22;30743;52.008;5.644;2023-11-18T01:37:05;11.30;99.90
45008;DHT22;30743;52.008;5.644;2023-11-18T01:39:33;11.90;99.90
45008;DHT22;30743;52.008;5.644;2023-11-18T01:41:59;11.20;99.90
45008;DHT22;30743;52.008;5.644;2023-11-18T01:44:25;11.10;99.90
45008;DHT22;30743;52.008;5.644;2023-11-18T01:46:54;11.00;99.90
45008;DHT22;30743;52.008;5.644;2023-11-18T01:49:20;11.00;99.90
45008;DHT22;30743;52.008;5.644;2023-11-18T01:51:46;10.90;99.90
45008;DHT22;30743;52.008;5.644;2023-11-18T01:54:12;11.10;99.90
45008;DHT22;30743;52.008;5.644;2023-11-18T01:56:46;11.20;99.90
45008;DHT22;30743;52.008;5.644;2023-11-18T01:59:13;11.30;99.90
45008;DHT22;30743;52.008;5.644;2023-11-18T02:01:47;11.20;99.90
45008;DHT22;30743;52.008;5.644;2023-11-18T02:04:14;11.10;99.90
45008;DHT22;30743;52.008;5.644;2023-11-18T02:06:39;11.00;99.90
45008;DHT22;30743;52.008;5.644;2023-11-18T02:09:05;10.90;99.90
45008;DHT22;30743;52.008;5.644;2023-11-18T02:11:45;10.90;99.90
45008;DHT22;30743;52.008;5.644;2023-11-18T02:14:14;10.90;99.90
45008;DHT22;30743;52.008;5.644;2023-11-18T02:16:42;10.70;99.90
45008;DHT22;30743;52.008;5.644;2023-11-18T02:19:21;10.70;99.90
45008;DHT22;30743;52.008;5.644;2023-11-18T02:21:48;10.60;99.90
45008;DHT22;30743;52.008;5.644;2023-11-18T02:24:32;10.50;99.90
45008;DHT22;30743;52.008;5.644;2023-11-18T02:27:02;10.50;99.90
45008;DHT22;30743;52.008;5.644;2023-11-18T02:29:35;10.60;99.90
45008;DHT22;30743;52.008;5.644;2023-11-18T02:35:23;10.60;99.90
45008;DHT22;30743;52.008;5.644;2023-11-18T02:37:51;10.40;99.90
45008;DHT22;30743;52.008;5.644;2023-11-18T02:40:26;10.50;99.90
45008;DHT22;30743;52.008;5.644;2023-11-18T02:42:54;10.50;99.90
45008;DHT22;30743;52.008;5.644;2023-11-18T02:45:20;10.60;99.90
45008;DHT22;30743;52.008;5.644;2023-11-18T02:47:47;10.50;99.90
45008;DHT22;30743;52.008;5.644;2023-11-18T02:50:13;10.50;99.90
45008;DHT22;30743;52.008;5.644;2023-11-18T02:52:41;10.40;99.90
45008;DHT22;30743;52.008;5.644;2023-11-18T02:55:08;10.40;99.90
45008;DHT22;30743;52.008;5.644;2023-11-18T02:57:35;10.50;99.90
45008;DHT22;30743;52.008;5.644;2023-11-18T03:00:00;10.60;99.90
45008;DHT22;30743;52.008;5.644;2023-11-18T03:02:29;10.50;99.90
45008;DHT22;30743;52.008;5.644;2023-11-18T03:04:59;10.70;99.90
45008;DHT22;30743;52.008;5.644;2023-11-18T03:07:25;10.60;99.90
45008;DHT22;30743;52.008;5.644;2023-11-18T03:09:52;10.70;99.90
45008;DHT22;30743;52.008;5.644;2023-11-18T03:12:18;10.70;99.90
45008;DHT22;30743;52.008;5.644;2023-11-18T03:14:43;10.70;99.90
45008;DHT22;30743;52.008;5.644;2023-11-18T03:17:10;10.70;99.90
45008;DHT22;30743;52.008;5.644;2023-11-18T03:19:35;10.70;99.90
45008;DHT22;30743;52.008;5.644;2023-11-18T03:22:02;10.70;99.90
45008;DHT22;30743;52.008;5.644;2023-11-18T03:24:28;10.70;99.90
45008;DHT22;30743;52.008;5.644;2023-11-18T03:26:57;10.50;99.90
45008;DHT22;30743;52.008;5.644;2023-11-18T03:29:23;10.40;99.90
45008;DHT22;30743;52.008;5.644;2023-11-18T03:31:49;10.50;99.90
45008;DHT22;30743;52.008;5.644;2023-11-18T03:34:18;10.50;99.90
45008;DHT22;30743;52.008;5.644;2023-11-18T03:36:47;10.30;99.90
45008;DHT22;30743;52.008;5.644;2023-11-18T03:39:13;10.30;99.90
45008;DHT22;30743;52.008;5.644;2023-11-18T03:41:42;10.20;99.90
45008;DHT22;30743;52.008;5.644;2023-11-18T03:44:14;10.20;99.90
45008;DHT22;30743;52.008;5.644;2023-11-18T03:46:39;10.20;99.90
45008;DHT22;30743;52.008;5.644;2023-11-18T03:49:06;10.30;99.90
45008;DHT22;30743;52.008;5.644;2023-11-18T03:51:32;10.30;99.90
45008;DHT22;30743;52.008;5.644;2023-11-18T03:53:57;10.50;99.90
45008;DHT22;30743;52.008;5.644;2023-11-18T03:56:23;10.60;99.90
45008;DHT22;30743;52.008;5.644;2023-11-18T03:58:48;10.70;99.90
45008;DHT22;30743;52.008;5.644;2023-11-18T04:01:26;10.80;99.90
45008;DHT22;30743;52.008;5.644;2023-11-18T04:03:55;11.00;99.90
45008;DHT22;30743;52.008;5.644;2023-11-18T04:06:22;11.00;99.90
45008;DHT22;30743;52.008;5.644;2023-11-18T04:08:48;11.00;99.90
45008;DHT22;30743;52.008;5.644;2023-11-18T04:11:14;11.10;99.90
45008;DHT22;30743;52.008;5.644;2023-11-18T04:13:40;11.60;99.90
45008;DHT22;30743;52.008;5.644;2023-11-18T04:16:13;11.10;99.90
45008;DHT22;30743;52.008;5.644;2023-11-18T04:18:41;11.20;99.90
45008;DHT22;30743;52.008;5.644;2023-11-18T04:21:07;11.20;99.90
45008;DHT22;30743;52.008;5.644;2023-11-18T04:23:40;11.20;99.90
45008;DHT22;30743;52.008;5.644;2023-11-18T04:26:07;11.10;99.90
45008;DHT22;30743;52.008;5.644;2023-11-18T04:28:34;10.90;99.90
45008;DHT22;30743;52.008;5.644;2023-11-18T04:31:00;11.00;99.90
45008;DHT22;30743;52.008;5.644;2023-11-18T04:33:26;10.80;99.90
45008;DHT22;30743;52.008;5.644;2023-11-18T04:35:52;10.60;99.90
45008;DHT22;30743;52.008;5.644;2023-11-18T04:38:18;10.50;99.90
45008;DHT22;30743;52.008;5.644;2023-11-18T04:40:44;10.40;99.90
45008;DHT22;30743;52.008;5.644;2023-11-18T04:43:12;10.30;99.90
45008;DHT22;30743;52.008;5.644;2023-11-18T04:45:37;10.40;99.90
45008;DHT22;30743;52.008;5.644;2023-11-18T04:48:04;10.20;99.90
45008;DHT22;30743;52.008;5.644;2023-11-18T04:50:30;10.20;99.90
45008;DHT22;30743;52.008;5.644;2023-11-18T04:52:57;10.20;99.90
45008;DHT22;30743;52.008;5.644;2023-11-18T04:55:22;10.20;99.90
45008;DHT22;30743;52.008;5.644;2023-11-18T04:57:48;10.30;99.90
45008;DHT22;30743;52.008;5.644;2023-11-18T05:00:14;10.30;99.90
45008;DHT22;30743;52.008;5.644;2023-11-18T05:02:42;10.20;99.90
45008;DHT22;30743;52.008;5.644;2023-11-18T05:05:10;10.30;99.90
45008;DHT22;30743;52.008;5.644;2023-11-18T05:07:36;10.60;99.90
45008;DHT22;30743;52.008;5.644;2023-11-18T05:10:03;10.80;99.90
45008;DHT22;30743;52.008;5.644;2023-11-18T05:12:29;10.60;99.90
45008;DHT22;30743;52.008;5.644;2023-11-18T05:14:56;10.50;99.90
45008;DHT22;30743;52.008;5.644;2023-11-18T05:17:25;10.40;99.90
45008;DHT22;30743;52.008;5.644;2023-11-18T05:19:51;10.40;99.90
45008;DHT22;30743;52.008;5.644;2023-11-18T05:22:17;10.30;99.90
45008;DHT22;30743;52.008;5.644;2023-11-18T05:24:43;10.40;99.90
45008;DHT22;30743;52.008;5.644;2023-11-18T05:27:09;10.40;99.90
45008;DHT22;30743;52.008;5.644;2023-11-18T05:29:34;10.50;99.90
45008;DHT22;30743;52.008;5.644;2023-11-18T05:32:00;10.50;99.90
45008;DHT22;30743;52.008;5.644;2023-11-18T05:34:26;10.60;99.90
45008;DHT22;30743;52.008;5.644;2023-11-18T05:36:51;10.70;99.90
45008;DHT22;30743;52.008;5.644;2023-11-18T05:39:20;10.80;99.90
45008;DHT22;30743;52.008;5.644;2023-11-18T05:41:49;10.80;99.90
45008;DHT22;30743;52.008;5.644;2023-11-18T05:44:16;10.90;99.90
45008;DHT22;30743;52.008;5.644;2023-11-18T05:46:47;11.00;99.90
45008;DHT22;30743;52.008;5.644;2023-11-18T05:49:13;11.00;99.90
45008;DHT22;30743;52.008;5.644;2023-11-18T05:51:39;10.80;99.90
45008;DHT22;30743;52.008;5.644;2023-11-18T05:54:06;10.80;99.90
45008;DHT22;30743;52.008;5.644;2023-11-18T05:56:32;10.60;99.90
45008;DHT22;30743;52.008;5.644;2023-11-18T05:58:58;10.70;99.90
45008;DHT22;30743;52.008;5.644;2023-11-18T06:01:24;10.60;99.90
45008;DHT22;30743;52.008;5.644;2023-11-18T06:03:52;10.60;99.90
45008;DHT22;30743;52.008;5.644;2023-11-18T06:06:18;10.50;99.90
45008;DHT22;30743;52.008;5.644;2023-11-18T06:08:44;10.50;99.90
45008;DHT22;30743;52.008;5.644;2023-11-18T06:11:13;10.40;99.90
45008;DHT22;30743;52.008;5.644;2023-11-18T06:13:41;10.40;99.90
45008;DHT22;30743;52.008;5.644;2023-11-18T06:16:22;10.30;99.90
45008;DHT22;30743;52.008;5.644;2023-11-18T06:18:54;10.40;99.90
45008;DHT22;30743;52.008;5.644;2023-11-18T06:21:21;10.40;99.90
45008;DHT22;30743;52.008;5.644;2023-11-18T06:23:50;10.50;99.90
45008;DHT22;30743;52.008;5.644;2023-11-18T06:26:16;10.50;99.90
45008;DHT22;30743;52.008;5.644;2023-11-18T06:28:44;10.50;99.90
45008;DHT22;30743;52.008;5.644;2023-11-18T06:31:10;10.50;99.90
45008;DHT22;30743;52.008;5.644;2023-11-18T06:33:44;10.50;99.90
45008;DHT22;30743;52.008;5.644;2023-11-18T06:36:17;10.50;99.90
45008;DHT22;30743;52.008;5.644;2023-11-18T06:38:43;11.30;99.90
45008;DHT22;30743;52.008;5.644;2023-11-18T06:41:12;10.50;99.90
45008;DHT22;30743;52.008;5.644;2023-11-18T06:43:39;10.40;99.90
45008;DHT22;30743;52.008;5.644;2023-11-18T06:46:23;10.30;99.90
45008;DHT22;30743;52.008;5.644;2023-11-18T06:48:53;10.20;99.90
45008;DHT22;30743;52.008;5.644;2023-11-18T06:51:29;10.20;99.90
45008;DHT22;30743;52.008;5.644;2023-11-18T06:53:55;10.20;99.90
45008;DHT22;30743;52.008;5.644;2023-11-18T06:56:21;10.10;99.90
45008;DHT22;30743;52.008;5.644;2023-11-18T06:58:47;10.10;99.90
45008;DHT22;30743;52.008;5.644;2023-11-18T07:01:13;10.20;99.90
45008;DHT22;30743;52.008;5.644;2023-11-18T07:03:44;10.30;99.90
45008;DHT22;30743;52.008;5.644;2023-11-18T07:06:10;10.00;99.90
45008;DHT22;30743;52.008;5.644;2023-11-18T07:08:36;10.00;99.90
45008;DHT22;30743;52.008;5.644;2023-11-18T07:11:03;10.20;99.90
45008;DHT22;30743;52.008;5.644;2023-11-18T07:13:29;10.10;99.90
45008;DHT22;30743;52.008;5.644;2023-11-18T07:15:54;10.10;99.90
45008;DHT22;30743;52.008;5.644;2023-11-18T07:18:22;10.10;99.90
45008;DHT22;30743;52.008;5.644;2023-11-18T07:20:50;10.10;99.90
45008;DHT22;30743;52.008;5.644;2023-11-18T07:23:18;10.10;99.90
45008;DHT22;30743;52.008;5.644;2023-11-18T07:25:44;10.40;99.90
45008;DHT22;30743;52.008;5.644;2023-11-18T07:28:11;10.60;99.90
45008;DHT22;30743;52.008;5.644;2023-11-18T07:30:37;10.80;99.90
45008;DHT22;30743;52.008;5.644;2023-11-18T07:33:03;10.90;99.90
45008;DHT22;30743;52.008;5.644;2023-11-18T07:35:29;11.10;99.90
45008;DHT22;30743;52.008;5.644;2023-11-18T07:37:55;11.20;99.90
45008;DHT22;30743;52.008;5.644;2023-11-18T07:40:22;11.20;99.90
45008;DHT22;30743;52.008;5.644;2023-11-18T07:42:54;11.30;99.90
45008;DHT22;30743;52.008;5.644;2023-11-18T07:45:21;11.40;99.90
45008;DHT22;30743;52.008;5.644;2023-11-18T07:47:49;11.50;99.90
45008;DHT22;30743;52.008;5.644;2023-11-18T07:50:15;11.50;99.90
45008;DHT22;30743;52.008;5.644;2023-11-18T07:52:41;11.50;99.90
45008;DHT22;30743;52.008;5.644;2023-11-18T07:55:07;11.40;99.90
45008;DHT22;30743;52.008;5.644;2023-11-18T07:57:36;11.40;99.90
45008;DHT22;30743;52.008;5.644;2023-11-18T08:00:02;11.90;99.90
45008;DHT22;30743;52.008;5.644;2023-11-18T08:02:37;11.30;99.90
45008;DHT22;30743;52.008;5.644;2023-11-18T08:05:04;11.50;99.90
45008;DHT22;30743;52.008;5.644;2023-11-18T08:07:33;11.40;99.90
45008;DHT22;30743;52.008;5.644;2023-11-18T08:09:59;11.40;99.90
45008;DHT22;30743;52.008;5.644;2023-11-18T08:12:25;11.40;99.90
45008;DHT22;30743;52.008;5.644;2023-11-18T08:14:50;11.30;99.90
45008;DHT22;30743;52.008;5.644;2023-11-18T08:17:16;11.80;99.90
45008;DHT22;30743;52.008;5.644;2023-11-18T08:19:41;11.00;99.90
45008;DHT22;30743;52.008;5.644;2023-11-18T08:22:07;11.10;99.90
45008;DHT22;30743;52.008;5.644;2023-11-18T08:24:34;10.90;99.90
45008;DHT22;30743;52.008;5.644;2023-11-18T08:27:02;10.80;99.90
45008;DHT22;30743;52.008;5.644;2023-11-18T08:29:29;10.80;99.90
45008;DHT22;30743;52.008;5.644;2023-11-18T08:31:57;10.70;99.90
45008;DHT22;30743;52.008;5.644;2023-11-18T08:34:23;10.60;99.90
45008;DHT22;30743;52.008;5.644;2023-11-18T08:36:51;10.60;99.90
45008;DHT22;30743;52.008;5.644;2023-11-18T08:39:17;10.60;99.90
45008;DHT22;30743;52.008;5.644;2023-11-18T08:41:46;10.60;99.90
45008;DHT22;30743;52.008;5.644;2023-11-18T08:44:11;10.60;99.90
45008;DHT22;30743;52.008;5.644;2023-11-18T08:46:40;10.70;99.90
45008;DHT22;30743;52.008;5.644;2023-11-18T08:49:07;10.60;99.90
45008;DHT22;30743;52.008;5.644;2023-11-18T08:51:37;10.50;99.90
45008;DHT22;30743;52.008;5.644;2023-11-18T08:54:02;10.60;99.90
45008;DHT22;30743;52.008;5.644;2023-11-18T08:56:48;10.70;99.90
45008;DHT22;30743;52.008;5.644;2023-11-18T08:59:19;10.70;99.90
45008;DHT22;30743;52.008;5.644;2023-11-18T09:01:51;10.70;99.90
45008;DHT22;30743;52.008;5.644;2023-11-18T09:04:27;10.70;99.90
45008;DHT22;30743;52.008;5.644;2023-11-18T09:06:53;11.00;99.90
45008;DHT22;30743;52.008;5.644;2023-11-18T09:09:20;11.10;99.90
45008;DHT22;30743;52.008;5.644;2023-11-18T09:11:53;11.00;99.90
45008;DHT22;30743;52.008;5.644;2023-11-18T09:14:18;11.20;99.90
45008;DHT22;30743;52.008;5.644;2023-11-18T09:16:45;11.20;99.90
45008;DHT22;30743;52.008;5.644;2023-11-18T09:19:10;11.10;99.90
45008;DHT22;30743;52.008;5.644;2023-11-18T09:21:36;10.90;99.90
45008;DHT22;30743;52.008;5.644;2023-11-18T09:24:02;10.90;99.90
45008;DHT22;30743;52.008;5.644;2023-11-18T09:26:33;10.90;99.90
45008;DHT22;30743;52.008;5.644;2023-11-18T09:29:00;10.60;99.90
45008;DHT22;30743;52.008;5.644;2023-11-18T09:31:27;10.70;99.90
45008;DHT22;30743;52.008;5.644;2023-11-18T09:33:52;10.60;99.90
45008;DHT22;30743;52.008;5.644;2023-11-18T09:36:19;10.70;99.90
45008;DHT22;30743;52.008;5.644;2023-11-18T09:38:45;10.90;99.90
45008;DHT22;30743;52.008;5.644;2023-11-18T09:41:13;10.80;99.90
45008;DHT22;30743;52.008;5.644;2023-11-18T09:43:43;10.90;99.90
45008;DHT22;30743;52.008;5.644;2023-11-18T09:46:14;10.80;99.90
45008;DHT22;30743;52.008;5.644;2023-11-18T09:48:58;10.90;99.90
45008;DHT22;30743;52.008;5.644;2023-11-18T09:51:31;11.00;99.90
45008;DHT22;30743;52.008;5.644;2023-11-18T09:54:00;10.90;99.90
45008;DHT22;30743;52.008;5.644;2023-11-18T09:56:51;10.80;99.90
45008;DHT22;30743;52.008;5.644;2023-11-18T09:59:31;10.80;99.90
45008;DHT22;30743;52.008;5.644;2023-11-18T10:02:00;10.70;99.90
45008;DHT22;30743;52.008;5.644;2023-11-18T10:04:28;10.60;99.90
45008;DHT22;30743;52.008;5.644;2023-11-18T10:06:54;10.70;99.90
45008;DHT22;30743;52.008;5.644;2023-11-18T10:09:28;10.80;99.90
45008;DHT22;30743;52.008;5.644;2023-11-18T10:11:55;10.80;99.90
45008;DHT22;30743;52.008;5.644;2023-11-18T10:14:41;10.60;99.90
45008;DHT22;30743;52.008;5.644;2023-11-18T10:17:07;10.50;99.90
45008;DHT22;30743;52.008;5.644;2023-11-18T10:19:55;10.60;99.90
45008;DHT22;30743;52.008;5.644;2023-11-18T10:22:27;10.80;99.90
45008;DHT22;30743;52.008;5.644;2023-11-18T10:24:57;10.70;99.90
45008;DHT22;30743;52.008;5.644;2023-11-18T10:27:24;10.70;99.90
45008;DHT22;30743;52.008;5.644;2023-11-18T10:30:03;10.90;99.90
45008;DHT22;30743;52.008;5.644;2023-11-18T10:32:30;10.90;99.90
45008;DHT22;30743;52.008;5.644;2023-11-18T10:35:01;10.90;99.90
45008;DHT22;30743;52.008;5.644;2023-11-18T10:37:27;10.90;99.90
45008;DHT22;30743;52.008;5.644;2023-11-18T10:39:56;10.70;99.90
45008;DHT22;30743;52.008;5.644;2023-11-18T10:42:28;10.50;99.90
45008;DHT22;30743;52.008;5.644;2023-11-18T10:44:56;10.50;99.90
45008;DHT22;30743;52.008;5.644;2023-11-18T10:47:26;10.50;99.90
45008;DHT22;30743;52.008;5.644;2023-11-18T10:49:53;10.40;99.90
45008;DHT22;30743;52.008;5.644;2023-11-18T10:52:21;10.50;99.90
45008;DHT22;30743;52.008;5.644;2023-11-18T10:54:52;10.60;99.90
45008;DHT22;30743;52.008;5.644;2023-11-18T10:57:20;10.40;99.90
45008;DHT22;30743;52.008;5.644;2023-11-18T10:59:59;10.50;99.90
45008;DHT22;30743;52.008;5.644;2023-11-18T11:02:25;10.60;99.90
45008;DHT22;30743;52.008;5.644;2023-11-18T11:04:50;10.60;99.90
45008;DHT22;30743;52.008;5.644;2023-11-18T11:07:17;10.60;99.90
45008;DHT22;30743;52.008;5.644;2023-11-18T11:09:44;10.60;99.90
45008;DHT22;30743;52.008;5.644;2023-11-18T11:12:12;10.50;99.90
45008;DHT22;30743;52.008;5.644;2023-11-18T11:15:01;10.50;99.90
45008;DHT22;30743;52.008;5.644;2023-11-18T11:17:29;10.50;99.90
45008;DHT22;30743;52.008;5.644;2023-11-18T11:20:07;10.50;99.90
45008;DHT22;30743;52.008;5.644;2023-11-18T11:23:38;10.50;99.90
45008;DHT22;30743;52.008;5.644;2023-11-18T11:26:02;10.40;99.90
45008;DHT22;30743;52.008;5.644;2023-11-18T11:28:40;10.60;99.90
45008;DHT22;30743;52.008;5.644;2023-11-18T11:31:23;10.70;99.90
45008;DHT22;30743;52.008;5.644;2023-11-18T11:33:58;10.70;99.90
45008;DHT22;30743;52.008;5.644;2023-11-18T11:36:30;10.70;99.90
45008;DHT22;30743;52.008;5.644;2023-11-18T11:38:59;10.70;99.90
45008;DHT22;30743;52.008;5.644;2023-11-18T11:41:27;10.60;99.90
45008;DHT22;30743;52.008;5.644;2023-11-18T11:43:55;10.50;99.90
45008;DHT22;30743;52.008;5.644;2023-11-18T11:46:22;10.50;99.90
45008;DHT22;30743;52.008;5.644;2023-11-18T11:48:49;10.60;99.90
45008;DHT22;30743;52.008;5.644;2023-11-18T11:51:28;10.40;99.90
45008;DHT22;30743;52.008;5.644;2023-11-18T11:54:02;10.50;99.90
45008;DHT22;30743;52.008;5.644;2023-11-18T11:56:41;10.40;99.90
45008;DHT22;30743;52.008;5.644;2023-11-18T11:59:07;11.20;99.90
45008;DHT22;30743;52.008;5.644;2023-11-18T12:01:36;10.70;99.90
45008;DHT22;30743;52.008;5.644;2023-11-18T12:04:08;10.70;99.90
45008;DHT22;30743;52.008;5.644;2023-11-18T12:06:42;10.60;99.90
45008;DHT22;30743;52.008;5.644;2023-11-18T12:09:10;10.70;99.90
45008;DHT22;30743;52.008;5.644;2023-11-18T12:11:36;11.00;99.90
45008;DHT22;30743;52.008;5.644;2023-11-18T12:14:08;10.60;99.90
45008;DHT22;30743;52.008;5.644;2023-11-18T12:17:03;10.50;99.90
45008;DHT22;30743;52.008;5.644;2023-11-18T12:19:40;10.70;99.90
45008;DHT22;30743;52.008;5.644;2023-11-18T12:41:38;10.70;99.90
45008;DHT22;30743;52.008;5.644;2023-11-18T12:44:31;10.80;99.90
45008;DHT22;30743;52.008;5.644;2023-11-18T12:47:01;10.80;99.90
45008;DHT22;30743;52.008;5.644;2023-11-18T12:49:47;10.90;99.90
45008;DHT22;30743;52.008;5.644;2023-11-18T12:52:21;10.90;99.90
45008;DHT22;30743;52.008;5.644;2023-11-18T12:54:47;10.80;99.90
45008;DHT22;30743;52.008;5.644;2023-11-18T12:57:17;10.90;99.90
45008;DHT22;30743;52.008;5.644;2023-11-18T12:59:44;10.70;99.90
45008;DHT22;30743;52.008;5.644;2023-11-18T13:02:11;10.70;99.90
45008;DHT22;30743;52.008;5.644;2023-11-18T13:04:47;10.80;99.90
45008;DHT22;30743;52.008;5.644;2023-11-18T13:07:18;10.90;99.90
45008;DHT22;30743;52.008;5.644;2023-11-18T13:09:43;11.10;99.90
45008;DHT22;30743;52.008;5.644;2023-11-18T13:12:11;11.30;99.90
45008;DHT22;30743;52.008;5.644;2023-11-18T13:14:41;11.30;99.90
45008;DHT22;30743;52.008;5.644;2023-11-18T13:17:12;11.10;99.90
45008;DHT22;30743;52.008;5.644;2023-11-18T13:19:38;10.90;99.90
45008;DHT22;30743;52.008;5.644;2023-11-18T13:22:06;10.70;99.90
45008;DHT22;30743;52.008;5.644;2023-11-18T13:24:43;10.60;99.90
45008;DHT22;30743;52.008;5.644;2023-11-18T13:27:09;10.40;99.90
45008;DHT22;30743;52.008;5.644;2023-11-18T13:29:36;10.50;99.90
45008;DHT22;30743;52.008;5.644;2023-11-18T13:32:05;10.60;99.90
45008;DHT22;30743;52.008;5.644;2023-11-18T13:34:35;10.50;99.90
45008;DHT22;30743;52.008;5.644;2023-11-18T13:37:05;10.40;99.90
45008;DHT22;30743;52.008;5.644;2023-11-18T13:39:32;10.40;99.90
45008;DHT22;30743;52.008;5.644;2023-11-18T13:41:58;10.20;99.90
45008;DHT22;30743;52.008;5.644;2023-11-18T13:44:33;10.30;99.90
45008;DHT22;30743;52.008;5.644;2023-11-18T13:47:10;10.30;99.90
45008;DHT22;30743;52.008;5.644;2023-11-18T13:49:37;10.30;99.90
45008;DHT22;30743;52.008;5.644;2023-11-18T13:52:06;10.30;99.90
45008;DHT22;30743;52.008;5.644;2023-11-18T13:54:37;10.20;99.90
45008;DHT22;30743;52.008;5.644;2023-11-18T13:57:03;10.30;99.90
45008;DHT22;30743;52.008;5.644;2023-11-18T13:59:30;10.50;99.90
45008;DHT22;30743;52.008;5.644;2023-11-18T14:01:56;10.50;99.90
45008;DHT22;30743;52.008;5.644;2023-11-18T14:04:26;10.70;99.90
45008;DHT22;30743;52.008;5.644;2023-11-18T14:06:56;10.80;99.90
45008;DHT22;30743;52.008;5.644;2023-11-18T14:09:22;11.00;99.90
45008;DHT22;30743;52.008;5.644;2023-11-18T14:11:51;10.90;99.90
45008;DHT22;30743;52.008;5.644;2023-11-18T14:14:16;10.70;99.90
45008;DHT22;30743;52.008;5.644;2023-11-18T14:16:43;10.90;99.90
45008;DHT22;30743;52.008;5.644;2023-11-18T14:19:08;10.80;99.90
45008;DHT22;30743;52.008;5.644;2023-11-18T14:21:34;10.70;99.90
45008;DHT22;30743;52.008;5.644;2023-11-18T14:23:59;10.50;99.90
45008;DHT22;30743;52.008;5.644;2023-11-18T14:26:27;10.50;99.90
45008;DHT22;30743;52.008;5.644;2023-11-18T14:28:53;10.70;99.90
45008;DHT22;30743;52.008;5.644;2023-11-18T14:31:18;10.90;99.90
45008;DHT22;30743;52.008;5.644;2023-11-18T14:33:44;10.70;99.90
45008;DHT22;30743;52.008;5.644;2023-11-18T14:36:10;10.70;99.90
45008;DHT22;30743;52.008;5.644;2023-11-18T14:38:36;10.70;99.90
45008;DHT22;30743;52.008;5.644;2023-11-18T14:41:03;10.50;99.90
45008;DHT22;30743;52.008;5.644;2023-11-18T14:43:30;10.60;99.90
45008;DHT22;30743;52.008;5.644;2023-11-18T14:45:55;10.50;99.90
45008;DHT22;30743;52.008;5.644;2023-11-18T14:48:21;10.50;99.90
45008;DHT22;30743;52.008;5.644;2023-11-18T14:50:47;10.50;99.90
45008;DHT22;30743;52.008;5.644;2023-11-18T14:53:12;10.60;99.90
45008;DHT22;30743;52.008;5.644;2023-11-18T14:55:39;10.60;99.90
45008;DHT22;30743;52.008;5.644;2023-11-18T14:58:04;10.70;99.90
45008;DHT22;30743;52.008;5.644;2023-11-18T15:00:30;10.60;99.90
45008;DHT22;30743;52.008;5.644;2023-11-18T15:02:58;10.50;99.90
45008;DHT22;30743;52.008;5.644;2023-11-18T15:05:25;10.70;99.90
45008;DHT22;30743;52.008;5.644;2023-11-18T15:07:53;10.60;99.90
45008;DHT22;30743;52.008;5.644;2023-11-18T15:10:21;10.60;99.90
45008;DHT22;30743;52.008;5.644;2023-11-18T15:12:54;10.60;99.90
45008;DHT22;30743;52.008;5.644;2023-11-18T15:15:27;10.70;99.90
45008;DHT22;30743;52.008;5.644;2023-11-18T15:20:29;10.70;99.90
45008;DHT22;30743;52.008;5.644;2023-11-18T15:22:54;10.70;99.90
45008;DHT22;30743;52.008;5.644;2023-11-18T15:25:20;10.70;99.90
45008;DHT22;30743;52.008;5.644;2023-11-18T15:27:46;10.70;99.90
45008;DHT22;30743;52.008;5.644;2023-11-18T15:30:16;10.80;99.90
45008;DHT22;30743;52.008;5.644;2023-11-18T15:32:43;10.70;99.90
45008;DHT22;30743;52.008;5.644;2023-11-18T15:35:10;10.80;99.90
45008;DHT22;30743;52.008;5.644;2023-11-18T15:37:43;10.80;99.90
45008;DHT22;30743;52.008;5.644;2023-11-18T15:40:16;10.80;99.90
45008;DHT22;30743;52.008;5.644;2023-11-18T15:42:45;10.30;99.90
45008;DHT22;30743;52.008;5.644;2023-11-18T15:45:23;10.80;99.90
45008;DHT22;30743;52.008;5.644;2023-11-18T15:47:50;10.90;99.90
45008;DHT22;30743;52.008;5.644;2023-11-18T15:50:16;11.00;99.90
45008;DHT22;30743;52.008;5.644;2023-11-18T15:52:43;11.10;99.90
45008;DHT22;30743;52.008;5.644;2023-11-18T15:55:10;10.90;99.90
45008;DHT22;30743;52.008;5.644;2023-11-18T15:57:40;11.00;99.90
45008;DHT22;30743;52.008;5.644;2023-11-18T16:00:06;11.00;99.90
45008;DHT22;30743;52.008;5.644;2023-11-18T16:02:35;10.90;99.90
45008;DHT22;30743;52.008;5.644;2023-11-18T16:05:00;10.80;99.90